createdAt,value
2023-03-22T00:00:29.543Z,1.07
2023-03-22T00:05:37.387Z,1.05
2023-03-22T00:10:45.661Z,1.04
2023-03-22T00:15:52.973Z,0.96
2023-03-22T00:21:01.414Z,1.06
2023-03-22T00:26:09.793Z,1.07
2023-03-22T00:31:18.228Z,1.11
2023-03-22T00:36:25.544Z,1.14
2023-03-22T00:41:33.588Z,1.16
2023-03-22T00:46:40.777Z,1.19
2023-03-22T00:51:48.362Z,1.24
2023-03-22T00:56:55.985Z,1.30
2023-03-22T01:02:04.626Z,1.34
2023-03-22T01:07:18.208Z,1.39
2023-03-22T01:12:26.219Z,1.48
2023-03-22T01:17:33.685Z,1.59
2023-03-22T01:22:41.390Z,1.70
2023-03-22T01:27:48.884Z,1.83
2023-03-22T01:32:56.345Z,1.93
2023-03-22T01:38:03.973Z,2.05
2023-03-22T01:43:18.822Z,2.13
2023-03-22T01:48:30.078Z,2.13
2023-03-22T01:53:41.482Z,2.30
2023-03-22T01:58:50.912Z,2.40
2023-03-22T02:04:05.169Z,2.47
2023-03-22T02:09:14.844Z,2.53
2023-03-22T02:14:51.216Z,2.60
2023-03-22T02:21:15.272Z,2.66
2023-03-22T02:26:59.834Z,2.71
2023-03-22T02:32:21.063Z,2.77
2023-03-22T02:38:10.799Z,2.76
2023-03-22T02:43:31.463Z,2.82
2023-03-22T02:48:44.319Z,2.80
2023-03-22T02:53:57.746Z,2.81
2023-03-22T02:59:09.385Z,2.81
2023-03-22T03:04:23.197Z,2.80
2023-03-22T03:09:33.047Z,2.80
2023-03-22T03:14:41.350Z,2.81
2023-03-22T03:20:02.031Z,2.82
2023-03-22T03:25:19.107Z,2.82
2023-03-22T03:30:33.624Z,2.82
2023-03-22T03:35:45.979Z,2.80
2023-03-22T03:40:57.475Z,2.79
2023-03-22T03:46:06.039Z,2.80
2023-03-22T03:51:13.883Z,2.81
2023-03-22T03:56:21.641Z,2.80
2023-03-22T04:01:29.665Z,2.79
2023-03-22T04:06:46.067Z,2.78
2023-03-22T04:12:00.792Z,2.81
2023-03-22T04:17:09.349Z,2.83
2023-03-22T04:22:18.948Z,2.84
2023-03-22T04:27:26.858Z,2.86
2023-03-22T04:32:41.739Z,2.84
2023-03-22T04:37:52.039Z,2.86
2023-03-22T04:43:04.484Z,2.87
2023-03-22T04:48:23.285Z,2.86
2023-03-22T04:53:31.839Z,2.86
2023-03-22T04:58:44.342Z,2.86
2023-03-22T05:03:53.260Z,2.88
2023-03-22T05:09:02.617Z,2.91
2023-03-22T05:14:11.734Z,2.96
2023-03-22T05:19:22.744Z,3.01
2023-03-22T05:24:32.153Z,3.08
2023-03-22T05:29:45.821Z,3.16
2023-03-22T05:35:04.164Z,3.23
2023-03-22T05:40:16.018Z,3.33
2023-03-22T05:45:25.024Z,3.48
2023-03-22T05:50:43.177Z,3.64
2023-03-22T05:55:50.812Z,3.82
2023-03-22T06:01:01.699Z,3.97
2023-03-22T06:06:39.782Z,4.14
2023-03-22T06:11:52.308Z,4.26
2023-03-22T06:17:00.358Z,4.37
2023-03-22T06:22:08.234Z,4.48
2023-03-22T06:27:16.829Z,4.57
2023-03-22T06:32:25.209Z,4.66
2023-03-22T06:37:33.270Z,4.80
2023-03-22T06:42:41.311Z,4.97
2023-03-22T06:47:52.071Z,5.15
2023-03-22T06:53:09.424Z,5.30
2023-03-22T06:58:17.218Z,5.48
2023-03-22T07:03:24.538Z,5.64
2023-03-22T07:08:37.605Z,5.78
2023-03-22T07:13:46.196Z,5.90
2023-03-22T07:18:57.741Z,6.05
2023-03-22T07:24:07.223Z,6.20
2023-03-22T07:29:17.190Z,6.34
2023-03-22T07:34:24.655Z,6.52
2023-03-22T07:39:41.959Z,6.71
2023-03-22T07:44:50.211Z,6.91
2023-03-22T07:50:00.413Z,7.08
2023-03-22T07:55:14.789Z,7.21
2023-03-22T08:05:52.064Z,7.49
2023-03-22T08:11:00.630Z,7.63
2023-03-22T08:16:09.755Z,7.74
2023-03-22T08:21:18.923Z,7.87
2023-03-22T08:26:30.475Z,7.98
2023-03-22T08:31:42.637Z,8.06
2023-03-22T08:36:50.987Z,8.13
2023-03-22T08:41:58.786Z,8.22
2023-03-22T08:47:07.293Z,8.32
2023-03-22T08:52:15.302Z,8.43
2023-03-22T08:57:38.598Z,8.50
2023-03-22T09:03:05.826Z,8.56
2023-03-22T09:08:19.231Z,8.59
2023-03-22T09:13:31.675Z,8.60
2023-03-22T09:18:42.145Z,8.60
2023-03-22T09:23:53.092Z,8.62
2023-03-22T09:29:03.075Z,8.62
2023-03-22T09:34:11.243Z,8.61
2023-03-22T09:39:19.351Z,8.60
2023-03-22T09:44:35.820Z,8.59
2023-03-22T09:49:53.650Z,8.57
2023-03-22T09:55:03.138Z,8.54
2023-03-22T10:00:24.727Z,8.53
2023-03-22T10:05:38.834Z,8.56
2023-03-22T10:10:47.260Z,8.56
2023-03-22T10:15:57.648Z,8.55
2023-03-22T10:21:07.895Z,8.54
2023-03-22T10:26:23.871Z,8.58
2023-03-22T10:31:33.200Z,8.61
2023-03-22T10:36:43.377Z,8.62
2023-03-22T10:41:52.607Z,8.65
2023-03-22T10:47:08.557Z,8.69
2023-03-22T10:52:31.364Z,8.73
2023-03-22T10:57:41.392Z,8.78
2023-03-22T11:03:00.370Z,8.82
2023-03-22T11:08:16.668Z,8.87
2023-03-22T11:13:24.939Z,8.87
2023-03-22T11:18:36.054Z,8.90
2023-03-22T11:23:50.266Z,8.92
2023-03-22T11:29:18.104Z,8.93
2023-03-22T11:34:28.307Z,8.93
2023-03-22T11:39:36.944Z,8.92
2023-03-22T11:44:47.002Z,8.91
2023-03-22T11:49:57.573Z,8.91
2023-03-22T11:55:07.133Z,8.90
2023-03-22T12:00:25.938Z,8.90
2023-03-22T12:05:36.111Z,8.92
2023-03-22T12:10:47.659Z,8.94
2023-03-22T12:15:59.663Z,8.96
2023-03-22T12:21:07.561Z,8.97
2023-03-22T12:26:19.927Z,9.01
2023-03-22T12:31:37.603Z,9.03
2023-03-22T12:36:51.856Z,9.06
2023-03-22T12:42:03.123Z,9.08
2023-03-22T12:47:20.816Z,9.10
2023-03-22T12:52:45.392Z,9.12
2023-03-22T12:57:56.554Z,9.15
2023-03-22T13:03:10.616Z,9.16
2023-03-22T13:08:23.521Z,9.18
2023-03-22T13:13:54.924Z,9.21
2023-03-22T13:19:07.080Z,9.23
2023-03-22T13:24:29.451Z,9.24
2023-03-22T13:29:42.375Z,9.25
2023-03-22T13:34:54.419Z,9.23
2023-03-22T13:40:06.241Z,9.26
2023-03-22T13:45:34.761Z,9.29
2023-03-22T13:50:43.471Z,9.31
2023-03-22T13:56:05.907Z,9.27
2023-03-22T14:01:16.510Z,9.35
2023-03-22T14:06:29.214Z,9.39
2023-03-22T14:11:47.902Z,9.39
2023-03-22T14:17:07.083Z,9.39
